sensor_id;sensor_type;location;lat;lon;timestamp;P1;durP1;ratioP1;P2;durP2;ratioP2
11996;SDS011;6058;48.704;9.474;2024-03-02T00:02:24;7.50;;;5.60;;
11996;SDS011;6058;48.704;9.474;2024-03-02T00:04:51;7.60;;;6.03;;
11996;SDS011;6058;48.704;9.474;2024-03-02T00:07:18;6.60;;;5.03;;
11996;SDS011;6058;48.704;9.474;2024-03-02T00:09:46;8.13;;;5.70;;
11996;SDS011;6058;48.704;9.474;2024-03-02T00:12:14;8.23;;;5.67;;
11996;SDS011;6058;48.704;9.474;2024-03-02T00:14:42;6.77;;;4.77;;
11996;SDS011;6058;48.704;9.474;2024-03-02T00:17:14;5.80;;;5.10;;
11996;SDS011;6058;48.704;9.474;2024-03-02T00:19:45;9.77;;;5.80;;
11996;SDS011;6058;48.704;9.474;2024-03-02T00:22:12;10.27;;;5.93;;
11996;SDS011;6058;48.704;9.474;2024-03-02T00:24:39;8.53;;;5.90;;
11996;SDS011;6058;48.704;9.474;2024-03-02T00:27:06;10.13;;;6.13;;
11996;SDS011;6058;48.704;9.474;2024-03-02T00:29:36;5.63;;;5.00;;
11996;SDS011;6058;48.704;9.474;2024-03-02T00:32:03;7.67;;;5.90;;
11996;SDS011;6058;48.704;9.474;2024-03-02T00:34:35;7.73;;;5.93;;
11996;SDS011;6058;48.704;9.474;2024-03-02T00:37:02;7.73;;;6.10;;
11996;SDS011;6058;48.704;9.474;2024-03-02T00:39:29;8.23;;;5.40;;
11996;SDS011;6058;48.704;9.474;2024-03-02T00:41:57;7.73;;;5.40;;
11996;SDS011;6058;48.704;9.474;2024-03-02T00:44:25;9.03;;;6.33;;
11996;SDS011;6058;48.704;9.474;2024-03-02T00:46:55;8.23;;;5.73;;
11996;SDS011;6058;48.704;9.474;2024-03-02T00:49:23;7.90;;;6.13;;
11996;SDS011;6058;48.704;9.474;2024-03-02T00:51:53;8.33;;;6.23;;
11996;SDS011;6058;48.704;9.474;2024-03-02T00:54:21;6.60;;;4.90;;
11996;SDS011;6058;48.704;9.474;2024-03-02T00:56:49;10.50;;;6.00;;
11996;SDS011;6058;48.704;9.474;2024-03-02T00:59:16;6.43;;;4.87;;
11996;SDS011;6058;48.704;9.474;2024-03-02T01:01:43;8.03;;;5.80;;
11996;SDS011;6058;48.704;9.474;2024-03-02T01:04:10;7.10;;;5.50;;
11996;SDS011;6058;48.704;9.474;2024-03-02T01:06:39;7.27;;;5.33;;
11996;SDS011;6058;48.704;9.474;2024-03-02T01:09:07;8.80;;;5.70;;
11996;SDS011;6058;48.704;9.474;2024-03-02T01:11:34;9.10;;;5.50;;
11996;SDS011;6058;48.704;9.474;2024-03-02T01:14:01;8.47;;;5.20;;
11996;SDS011;6058;48.704;9.474;2024-03-02T01:16:29;7.90;;;5.47;;
11996;SDS011;6058;48.704;9.474;2024-03-02T01:18:56;7.00;;;4.80;;
11996;SDS011;6058;48.704;9.474;2024-03-02T01:21:23;7.70;;;6.03;;
11996;SDS011;6058;48.704;9.474;2024-03-02T01:23:51;8.13;;;5.37;;
11996;SDS011;6058;48.704;9.474;2024-03-02T01:26:19;7.93;;;5.53;;
11996;SDS011;6058;48.704;9.474;2024-03-02T01:28:46;6.00;;;4.80;;
11996;SDS011;6058;48.704;9.474;2024-03-02T01:31:13;7.37;;;5.53;;
11996;SDS011;6058;48.704;9.474;2024-03-02T01:33:41;7.90;;;5.50;;
11996;SDS011;6058;48.704;9.474;2024-03-02T01:36:08;8.90;;;5.43;;
11996;SDS011;6058;48.704;9.474;2024-03-02T01:38:35;9.63;;;6.17;;
11996;SDS011;6058;48.704;9.474;2024-03-02T01:41:02;7.70;;;5.57;;
11996;SDS011;6058;48.704;9.474;2024-03-02T01:43:30;7.87;;;5.43;;
11996;SDS011;6058;48.704;9.474;2024-03-02T01:45:58;7.20;;;5.37;;
11996;SDS011;6058;48.704;9.474;2024-03-02T01:48:25;7.83;;;5.67;;
11996;SDS011;6058;48.704;9.474;2024-03-02T01:50:52;9.43;;;6.83;;
11996;SDS011;6058;48.704;9.474;2024-03-02T01:53:19;9.40;;;6.47;;
11996;SDS011;6058;48.704;9.474;2024-03-02T01:55:46;9.63;;;5.50;;
11996;SDS011;6058;48.704;9.474;2024-03-02T01:58:13;8.67;;;6.80;;
11996;SDS011;6058;48.704;9.474;2024-03-02T02:00:42;8.57;;;6.07;;
11996;SDS011;6058;48.704;9.474;2024-03-02T02:03:10;9.27;;;6.90;;
11996;SDS011;6058;48.704;9.474;2024-03-02T02:05:37;9.70;;;6.57;;
11996;SDS011;6058;48.704;9.474;2024-03-02T02:08:04;8.43;;;6.50;;
11996;SDS011;6058;48.704;9.474;2024-03-02T02:10:31;8.67;;;6.10;;
11996;SDS011;6058;48.704;9.474;2024-03-02T02:12:58;9.77;;;6.33;;
11996;SDS011;6058;48.704;9.474;2024-03-02T02:15:26;8.10;;;5.53;;
11996;SDS011;6058;48.704;9.474;2024-03-02T02:17:54;11.07;;;6.77;;
11996;SDS011;6058;48.704;9.474;2024-03-02T02:20:22;11.50;;;6.70;;
11996;SDS011;6058;48.704;9.474;2024-03-02T02:22:57;11.00;;;7.47;;
11996;SDS011;6058;48.704;9.474;2024-03-02T02:25:24;10.43;;;6.63;;
11996;SDS011;6058;48.704;9.474;2024-03-02T02:27:52;9.20;;;6.27;;
11996;SDS011;6058;48.704;9.474;2024-03-02T02:30:19;10.60;;;6.17;;
11996;SDS011;6058;48.704;9.474;2024-03-02T02:32:47;7.57;;;5.60;;
11996;SDS011;6058;48.704;9.474;2024-03-02T02:35:14;8.30;;;5.97;;
11996;SDS011;6058;48.704;9.474;2024-03-02T02:37:41;9.67;;;6.60;;
11996;SDS011;6058;48.704;9.474;2024-03-02T02:40:10;10.00;;;6.70;;
11996;SDS011;6058;48.704;9.474;2024-03-02T02:42:38;10.03;;;5.90;;
11996;SDS011;6058;48.704;9.474;2024-03-02T02:45:05;9.77;;;7.03;;
11996;SDS011;6058;48.704;9.474;2024-03-02T02:47:33;10.73;;;6.97;;
11996;SDS011;6058;48.704;9.474;2024-03-02T02:50:01;10.27;;;6.57;;
11996;SDS011;6058;48.704;9.474;2024-03-02T02:52:32;10.77;;;6.77;;
11996;SDS011;6058;48.704;9.474;2024-03-02T02:55:01;9.00;;;5.90;;
11996;SDS011;6058;48.704;9.474;2024-03-02T02:57:30;9.53;;;6.43;;
11996;SDS011;6058;48.704;9.474;2024-03-02T03:00:00;9.77;;;7.00;;
11996;SDS011;6058;48.704;9.474;2024-03-02T03:02:30;8.67;;;6.27;;
11996;SDS011;6058;48.704;9.474;2024-03-02T03:04:57;10.50;;;6.83;;
11996;SDS011;6058;48.704;9.474;2024-03-02T03:07:24;9.80;;;6.93;;
11996;SDS011;6058;48.704;9.474;2024-03-02T03:09:51;10.20;;;7.37;;
11996;SDS011;6058;48.704;9.474;2024-03-02T03:12:18;12.70;;;7.00;;
11996;SDS011;6058;48.704;9.474;2024-03-02T03:14:47;9.40;;;6.93;;
11996;SDS011;6058;48.704;9.474;2024-03-02T03:17:14;8.87;;;6.10;;
11996;SDS011;6058;48.704;9.474;2024-03-02T03:19:42;8.33;;;6.37;;
11996;SDS011;6058;48.704;9.474;2024-03-02T03:22:09;12.97;;;6.90;;
11996;SDS011;6058;48.704;9.474;2024-03-02T03:24:36;10.07;;;6.90;;
11996;SDS011;6058;48.704;9.474;2024-03-02T03:27:03;10.27;;;6.93;;
11996;SDS011;6058;48.704;9.474;2024-03-02T03:29:30;7.87;;;5.40;;
11996;SDS011;6058;48.704;9.474;2024-03-02T03:31:59;7.67;;;5.57;;
11996;SDS011;6058;48.704;9.474;2024-03-02T03:34:26;7.83;;;6.03;;
11996;SDS011;6058;48.704;9.474;2024-03-02T03:36:54;9.97;;;6.20;;
11996;SDS011;6058;48.704;9.474;2024-03-02T03:39:21;12.87;;;7.53;;
11996;SDS011;6058;48.704;9.474;2024-03-02T03:41:48;11.80;;;7.97;;
11996;SDS011;6058;48.704;9.474;2024-03-02T03:44:16;14.80;;;8.03;;
11996;SDS011;6058;48.704;9.474;2024-03-02T03:46:43;10.50;;;7.63;;
11996;SDS011;6058;48.704;9.474;2024-03-02T03:49:11;13.00;;;7.30;;
11996;SDS011;6058;48.704;9.474;2024-03-02T03:51:38;11.00;;;8.00;;
11996;SDS011;6058;48.704;9.474;2024-03-02T03:54:06;10.53;;;6.93;;
11996;SDS011;6058;48.704;9.474;2024-03-02T03:56:33;10.40;;;6.80;;
11996;SDS011;6058;48.704;9.474;2024-03-02T03:59:00;9.33;;;6.83;;
11996;SDS011;6058;48.704;9.474;2024-03-02T04:01:27;8.67;;;6.20;;
11996;SDS011;6058;48.704;9.474;2024-03-02T04:03:54;10.30;;;6.03;;
11996;SDS011;6058;48.704;9.474;2024-03-02T04:06:22;8.43;;;5.70;;
11996;SDS011;6058;48.704;9.474;2024-03-02T04:08:50;12.07;;;6.27;;
11996;SDS011;6058;48.704;9.474;2024-03-02T04:11:17;9.63;;;6.00;;
11996;SDS011;6058;48.704;9.474;2024-03-02T04:13:44;9.40;;;5.63;;
11996;SDS011;6058;48.704;9.474;2024-03-02T04:16:11;7.70;;;5.10;;
11996;SDS011;6058;48.704;9.474;2024-03-02T04:18:38;7.90;;;5.60;;
11996;SDS011;6058;48.704;9.474;2024-03-02T04:21:06;8.37;;;5.87;;
11996;SDS011;6058;48.704;9.474;2024-03-02T04:23:34;6.90;;;5.60;;
11996;SDS011;6058;48.704;9.474;2024-03-02T04:26:02;9.87;;;6.17;;
11996;SDS011;6058;48.704;9.474;2024-03-02T04:28:29;8.03;;;5.30;;
11996;SDS011;6058;48.704;9.474;2024-03-02T04:30:56;7.93;;;5.07;;
11996;SDS011;6058;48.704;9.474;2024-03-02T04:33:23;7.97;;;5.60;;
11996;SDS011;6058;48.704;9.474;2024-03-02T04:35:50;5.77;;;5.20;;
11996;SDS011;6058;48.704;9.474;2024-03-02T04:38:17;9.13;;;5.87;;
11996;SDS011;6058;48.704;9.474;2024-03-02T04:40:46;7.93;;;6.17;;
11996;SDS011;6058;48.704;9.474;2024-03-02T04:43:13;8.63;;;6.43;;
11996;SDS011;6058;48.704;9.474;2024-03-02T04:45:41;9.30;;;6.83;;
11996;SDS011;6058;48.704;9.474;2024-03-02T04:48:08;8.53;;;5.90;;
11996;SDS011;6058;48.704;9.474;2024-03-02T04:50:36;8.47;;;5.20;;
11996;SDS011;6058;48.704;9.474;2024-03-02T04:53:03;11.40;;;7.03;;
11996;SDS011;6058;48.704;9.474;2024-03-02T04:55:33;8.63;;;5.60;;
11996;SDS011;6058;48.704;9.474;2024-03-02T04:58:30;8.20;;;5.57;;
11996;SDS011;6058;48.704;9.474;2024-03-02T05:00:57;8.47;;;5.20;;
11996;SDS011;6058;48.704;9.474;2024-03-02T05:03:24;9.47;;;6.17;;
11996;SDS011;6058;48.704;9.474;2024-03-02T05:05:51;8.20;;;6.40;;
11996;SDS011;6058;48.704;9.474;2024-03-02T05:08:19;10.77;;;6.30;;
11996;SDS011;6058;48.704;9.474;2024-03-02T05:10:46;7.40;;;6.00;;
11996;SDS011;6058;48.704;9.474;2024-03-02T05:13:13;8.70;;;5.60;;
11996;SDS011;6058;48.704;9.474;2024-03-02T05:15:44;6.87;;;4.93;;
11996;SDS011;6058;48.704;9.474;2024-03-02T05:18:11;11.90;;;6.57;;
11996;SDS011;6058;48.704;9.474;2024-03-02T05:20:38;9.70;;;6.00;;
11996;SDS011;6058;48.704;9.474;2024-03-02T05:23:06;9.23;;;5.60;;
11996;SDS011;6058;48.704;9.474;2024-03-02T05:25:33;10.67;;;6.80;;
11996;SDS011;6058;48.704;9.474;2024-03-02T05:28:00;7.33;;;6.00;;
11996;SDS011;6058;48.704;9.474;2024-03-02T05:30:27;9.90;;;5.87;;
11996;SDS011;6058;48.704;9.474;2024-03-02T05:32:55;10.03;;;5.70;;
11996;SDS011;6058;48.704;9.474;2024-03-02T05:35:23;10.00;;;5.47;;
11996;SDS011;6058;48.704;9.474;2024-03-02T05:37:50;9.90;;;5.93;;
11996;SDS011;6058;48.704;9.474;2024-03-02T05:40:17;9.17;;;6.73;;
11996;SDS011;6058;48.704;9.474;2024-03-02T05:42:44;8.30;;;5.80;;
11996;SDS011;6058;48.704;9.474;2024-03-02T05:45:12;7.90;;;5.63;;
11996;SDS011;6058;48.704;9.474;2024-03-02T05:47:41;9.33;;;6.53;;
11996;SDS011;6058;48.704;9.474;2024-03-02T05:50:10;14.03;;;7.73;;
11996;SDS011;6058;48.704;9.474;2024-03-02T05:52:37;9.20;;;6.33;;
11996;SDS011;6058;48.704;9.474;2024-03-02T05:55:05;10.87;;;6.73;;
11996;SDS011;6058;48.704;9.474;2024-03-02T05:57:32;9.70;;;6.63;;
11996;SDS011;6058;48.704;9.474;2024-03-02T06:00:14;10.80;;;6.47;;
11996;SDS011;6058;48.704;9.474;2024-03-02T06:02:42;10.90;;;7.03;;
11996;SDS011;6058;48.704;9.474;2024-03-02T06:05:10;10.90;;;6.50;;
11996;SDS011;6058;48.704;9.474;2024-03-02T06:07:37;9.13;;;5.73;;
11996;SDS011;6058;48.704;9.474;2024-03-02T06:10:05;10.50;;;6.27;;
11996;SDS011;6058;48.704;9.474;2024-03-02T06:12:33;7.60;;;5.80;;
11996;SDS011;6058;48.704;9.474;2024-03-02T06:15:00;9.07;;;6.73;;
11996;SDS011;6058;48.704;9.474;2024-03-02T06:17:29;8.23;;;5.40;;
11996;SDS011;6058;48.704;9.474;2024-03-02T06:19:56;9.00;;;6.10;;
11996;SDS011;6058;48.704;9.474;2024-03-02T06:22:24;9.87;;;6.67;;
11996;SDS011;6058;48.704;9.474;2024-03-02T06:24:51;7.73;;;5.90;;
11996;SDS011;6058;48.704;9.474;2024-03-02T06:27:18;9.30;;;6.23;;
11996;SDS011;6058;48.704;9.474;2024-03-02T06:29:46;8.37;;;6.17;;
11996;SDS011;6058;48.704;9.474;2024-03-02T06:32:13;7.83;;;6.23;;
11996;SDS011;6058;48.704;9.474;2024-03-02T06:34:40;8.80;;;6.30;;
11996;SDS011;6058;48.704;9.474;2024-03-02T06:37:08;9.10;;;6.00;;
11996;SDS011;6058;48.704;9.474;2024-03-02T06:39:36;8.67;;;6.07;;
11996;SDS011;6058;48.704;9.474;2024-03-02T06:42:03;7.70;;;5.17;;
11996;SDS011;6058;48.704;9.474;2024-03-02T06:44:31;8.50;;;5.60;;
11996;SDS011;6058;48.704;9.474;2024-03-02T06:46:58;8.93;;;5.83;;
11996;SDS011;6058;48.704;9.474;2024-03-02T06:49:25;7.50;;;5.23;;
11996;SDS011;6058;48.704;9.474;2024-03-02T06:52:05;5.77;;;4.63;;
11996;SDS011;6058;48.704;9.474;2024-03-02T06:54:32;7.87;;;5.43;;
11996;SDS011;6058;48.704;9.474;2024-03-02T06:57:01;6.93;;;5.20;;
11996;SDS011;6058;48.704;9.474;2024-03-02T06:59:28;9.97;;;6.53;;
11996;SDS011;6058;48.704;9.474;2024-03-02T07:01:55;10.40;;;6.37;;
11996;SDS011;6058;48.704;9.474;2024-03-02T07:04:23;9.73;;;6.57;;
11996;SDS011;6058;48.704;9.474;2024-03-02T07:06:50;8.23;;;5.50;;
11996;SDS011;6058;48.704;9.474;2024-03-02T07:09:17;8.80;;;6.43;;
11996;SDS011;6058;48.704;9.474;2024-03-02T07:11:47;10.80;;;5.87;;
11996;SDS011;6058;48.704;9.474;2024-03-02T07:14:26;10.93;;;5.87;;
11996;SDS011;6058;48.704;9.474;2024-03-02T07:17:13;9.07;;;6.37;;
11996;SDS011;6058;48.704;9.474;2024-03-02T07:19:40;9.93;;;6.83;;
11996;SDS011;6058;48.704;9.474;2024-03-02T07:22:07;7.77;;;5.87;;
11996;SDS011;6058;48.704;9.474;2024-03-02T07:24:38;9.57;;;6.30;;
11996;SDS011;6058;48.704;9.474;2024-03-02T07:27:06;10.10;;;6.40;;
11996;SDS011;6058;48.704;9.474;2024-03-02T07:29:35;9.80;;;6.87;;
11996;SDS011;6058;48.704;9.474;2024-03-02T07:32:02;11.07;;;6.83;;
11996;SDS011;6058;48.704;9.474;2024-03-02T07:34:29;10.10;;;6.43;;
11996;SDS011;6058;48.704;9.474;2024-03-02T07:36:56;9.60;;;6.00;;
11996;SDS011;6058;48.704;9.474;2024-03-02T07:39:24;8.33;;;6.07;;
11996;SDS011;6058;48.704;9.474;2024-03-02T07:41:51;8.93;;;6.10;;
11996;SDS011;6058;48.704;9.474;2024-03-02T07:44:18;8.53;;;6.07;;
11996;SDS011;6058;48.704;9.474;2024-03-02T07:46:47;8.83;;;6.30;;
11996;SDS011;6058;48.704;9.474;2024-03-02T07:49:19;12.03;;;7.07;;
11996;SDS011;6058;48.704;9.474;2024-03-02T07:51:46;10.17;;;6.47;;
11996;SDS011;6058;48.704;9.474;2024-03-02T07:54:13;9.93;;;6.73;;
11996;SDS011;6058;48.704;9.474;2024-03-02T07:56:40;8.60;;;6.50;;
11996;SDS011;6058;48.704;9.474;2024-03-02T07:59:07;12.97;;;8.10;;
11996;SDS011;6058;48.704;9.474;2024-03-02T08:01:34;11.47;;;7.40;;
11996;SDS011;6058;48.704;9.474;2024-03-02T08:04:03;9.83;;;6.97;;
11996;SDS011;6058;48.704;9.474;2024-03-02T08:06:30;10.83;;;7.20;;
11996;SDS011;6058;48.704;9.474;2024-03-02T08:08:57;9.73;;;7.40;;
11996;SDS011;6058;48.704;9.474;2024-03-02T08:11:25;11.47;;;7.63;;
11996;SDS011;6058;48.704;9.474;2024-03-02T08:13:54;11.40;;;7.83;;
11996;SDS011;6058;48.704;9.474;2024-03-02T08:16:21;14.53;;;8.67;;
11996;SDS011;6058;48.704;9.474;2024-03-02T08:18:50;12.97;;;8.93;;
11996;SDS011;6058;48.704;9.474;2024-03-02T08:21:18;13.20;;;9.43;;
11996;SDS011;6058;48.704;9.474;2024-03-02T08:23:46;12.10;;;8.33;;
11996;SDS011;6058;48.704;9.474;2024-03-02T08:26:13;13.77;;;9.40;;
11996;SDS011;6058;48.704;9.474;2024-03-02T08:28:40;13.03;;;8.87;;
11996;SDS011;6058;48.704;9.474;2024-03-02T08:31:07;17.03;;;10.80;;
11996;SDS011;6058;48.704;9.474;2024-03-02T08:33:34;16.73;;;10.57;;
11996;SDS011;6058;48.704;9.474;2024-03-02T08:36:02;15.10;;;10.70;;
11996;SDS011;6058;48.704;9.474;2024-03-02T08:38:30;14.70;;;9.63;;
11996;SDS011;6058;48.704;9.474;2024-03-02T08:40:57;13.77;;;9.03;;
11996;SDS011;6058;48.704;9.474;2024-03-02T08:43:24;11.73;;;8.67;;
11996;SDS011;6058;48.704;9.474;2024-03-02T08:45:52;13.23;;;8.67;;
11996;SDS011;6058;48.704;9.474;2024-03-02T08:48:19;13.70;;;8.77;;
11996;SDS011;6058;48.704;9.474;2024-03-02T08:50:46;12.90;;;9.60;;
11996;SDS011;6058;48.704;9.474;2024-03-02T08:53:13;14.00;;;9.53;;
11996;SDS011;6058;48.704;9.474;2024-03-02T08:55:44;12.97;;;8.23;;
11996;SDS011;6058;48.704;9.474;2024-03-02T08:58:12;14.10;;;9.53;;
11996;SDS011;6058;48.704;9.474;2024-03-02T09:00:39;15.20;;;9.00;;
11996;SDS011;6058;48.704;9.474;2024-03-02T09:03:06;12.13;;;8.80;;
11996;SDS011;6058;48.704;9.474;2024-03-02T09:05:34;13.50;;;9.13;;
11996;SDS011;6058;48.704;9.474;2024-03-02T09:08:01;11.77;;;8.43;;
11996;SDS011;6058;48.704;9.474;2024-03-02T09:10:28;12.23;;;7.93;;
11996;SDS011;6058;48.704;9.474;2024-03-02T09:12:57;12.37;;;8.23;;
11996;SDS011;6058;48.704;9.474;2024-03-02T09:15:24;12.17;;;7.33;;
11996;SDS011;6058;48.704;9.474;2024-03-02T09:17:52;11.23;;;8.50;;
11996;SDS011;6058;48.704;9.474;2024-03-02T09:20:19;11.10;;;7.97;;
11996;SDS011;6058;48.704;9.474;2024-03-02T09:22:46;15.80;;;9.20;;
11996;SDS011;6058;48.704;9.474;2024-03-02T09:25:13;13.90;;;9.40;;
11996;SDS011;6058;48.704;9.474;2024-03-02T09:27:41;10.13;;;8.30;;
11996;SDS011;6058;48.704;9.474;2024-03-02T09:30:10;12.60;;;8.60;;
11996;SDS011;6058;48.704;9.474;2024-03-02T09:32:38;11.10;;;8.07;;
11996;SDS011;6058;48.704;9.474;2024-03-02T09:35:06;10.00;;;6.43;;
11996;SDS011;6058;48.704;9.474;2024-03-02T09:37:34;12.47;;;7.90;;
11996;SDS011;6058;48.704;9.474;2024-03-02T09:40:01;12.30;;;7.20;;
11996;SDS011;6058;48.704;9.474;2024-03-02T09:42:28;10.30;;;6.57;;
11996;SDS011;6058;48.704;9.474;2024-03-02T09:44:57;9.47;;;6.40;;
11996;SDS011;6058;48.704;9.474;2024-03-02T09:47:28;8.83;;;6.50;;
11996;SDS011;6058;48.704;9.474;2024-03-02T09:49:55;8.47;;;6.47;;
11996;SDS011;6058;48.704;9.474;2024-03-02T09:52:22;7.73;;;5.87;;
11996;SDS011;6058;48.704;9.474;2024-03-02T09:54:49;7.67;;;5.67;;
11996;SDS011;6058;48.704;9.474;2024-03-02T09:57:16;8.53;;;6.30;;
11996;SDS011;6058;48.704;9.474;2024-03-02T09:59:43;8.70;;;5.63;;
11996;SDS011;6058;48.704;9.474;2024-03-02T10:02:11;7.90;;;5.40;;
11996;SDS011;6058;48.704;9.474;2024-03-02T10:04:39;8.07;;;5.53;;
11996;SDS011;6058;48.704;9.474;2024-03-02T10:07:10;6.43;;;5.50;;
11996;SDS011;6058;48.704;9.474;2024-03-02T10:09:37;8.63;;;5.90;;
11996;SDS011;6058;48.704;9.474;2024-03-02T10:12:05;5.77;;;4.70;;
11996;SDS011;6058;48.704;9.474;2024-03-02T10:14:32;7.90;;;5.37;;
11996;SDS011;6058;48.704;9.474;2024-03-02T10:17:03;5.47;;;4.33;;
11996;SDS011;6058;48.704;9.474;2024-03-02T10:19:30;6.63;;;4.63;;
11996;SDS011;6058;48.704;9.474;2024-03-02T10:22:01;4.57;;;3.80;;
11996;SDS011;6058;48.704;9.474;2024-03-02T10:24:34;5.30;;;4.77;;
11996;SDS011;6058;48.704;9.474;2024-03-02T10:27:02;5.17;;;3.47;;
11996;SDS011;6058;48.704;9.474;2024-03-02T10:29:36;5.43;;;4.10;;
11996;SDS011;6058;48.704;9.474;2024-03-02T10:32:04;4.63;;;3.53;;
11996;SDS011;6058;48.704;9.474;2024-03-02T10:34:31;5.60;;;4.10;;
11996;SDS011;6058;48.704;9.474;2024-03-02T10:37:00;4.67;;;4.00;;
11996;SDS011;6058;48.704;9.474;2024-03-02T10:39:28;7.13;;;4.37;;
11996;SDS011;6058;48.704;9.474;2024-03-02T10:41:56;3.60;;;3.13;;
11996;SDS011;6058;48.704;9.474;2024-03-02T10:44:24;4.90;;;3.80;;
11996;SDS011;6058;48.704;9.474;2024-03-02T10:46:52;3.37;;;3.07;;
11996;SDS011;6058;48.704;9.474;2024-03-02T10:49:20;5.80;;;4.03;;
11996;SDS011;6058;48.704;9.474;2024-03-02T10:51:50;4.30;;;3.27;;
11996;SDS011;6058;48.704;9.474;2024-03-02T10:54:25;3.93;;;3.07;;
11996;SDS011;6058;48.704;9.474;2024-03-02T10:56:55;4.93;;;3.13;;
11996;SDS011;6058;48.704;9.474;2024-03-02T10:59:25;2.97;;;2.60;;
11996;SDS011;6058;48.704;9.474;2024-03-02T11:01:55;3.53;;;2.37;;
11996;SDS011;6058;48.704;9.474;2024-03-02T11:04:23;2.60;;;2.33;;
11996;SDS011;6058;48.704;9.474;2024-03-02T11:06:51;3.93;;;2.83;;
11996;SDS011;6058;48.704;9.474;2024-03-02T11:09:19;2.87;;;2.67;;
11996;SDS011;6058;48.704;9.474;2024-03-02T11:11:49;4.07;;;2.43;;
11996;SDS011;6058;48.704;9.474;2024-03-02T11:14:21;4.07;;;2.60;;
11996;SDS011;6058;48.704;9.474;2024-03-02T11:16:50;2.97;;;2.37;;
11996;SDS011;6058;48.704;9.474;2024-03-02T11:19:19;3.60;;;2.50;;
11996;SDS011;6058;48.704;9.474;2024-03-02T11:21:47;5.30;;;3.10;;
11996;SDS011;6058;48.704;9.474;2024-03-02T11:24:28;2.90;;;2.60;;
11996;SDS011;6058;48.704;9.474;2024-03-02T11:26:59;2.50;;;2.30;;
11996;SDS011;6058;48.704;9.474;2024-03-02T11:29:45;2.67;;;2.47;;
11996;SDS011;6058;48.704;9.474;2024-03-02T11:32:13;2.20;;;2.00;;
11996;SDS011;6058;48.704;9.474;2024-03-02T11:34:41;2.70;;;2.40;;
11996;SDS011;6058;48.704;9.474;2024-03-02T11:37:10;2.70;;;2.33;;
11996;SDS011;6058;48.704;9.474;2024-03-02T11:39:37;3.70;;;3.03;;
11996;SDS011;6058;48.704;9.474;2024-03-02T11:42:06;7.70;;;3.80;;
11996;SDS011;6058;48.704;9.474;2024-03-02T11:44:35;3.33;;;2.93;;
11996;SDS011;6058;48.704;9.474;2024-03-02T11:47:03;2.37;;;1.63;;
11996;SDS011;6058;48.704;9.474;2024-03-02T11:49:38;3.23;;;2.93;;
11996;SDS011;6058;48.704;9.474;2024-03-02T11:52:06;2.50;;;2.30;;
11996;SDS011;6058;48.704;9.474;2024-03-02T11:54:34;3.30;;;2.63;;
11996;SDS011;6058;48.704;9.474;2024-03-02T11:57:03;2.57;;;2.27;;
11996;SDS011;6058;48.704;9.474;2024-03-02T11:59:31;2.83;;;1.90;;
11996;SDS011;6058;48.704;9.474;2024-03-02T12:01:59;2.37;;;2.17;;
11996;SDS011;6058;48.704;9.474;2024-03-02T12:04:26;3.93;;;2.20;;
11996;SDS011;6058;48.704;9.474;2024-03-02T12:06:54;2.77;;;1.97;;
11996;SDS011;6058;48.704;9.474;2024-03-02T12:09:24;4.43;;;2.07;;
11996;SDS011;6058;48.704;9.474;2024-03-02T12:12:00;2.40;;;2.20;;
11996;SDS011;6058;48.704;9.474;2024-03-02T12:14:28;2.60;;;2.03;;
11996;SDS011;6058;48.704;9.474;2024-03-02T12:16:57;1.97;;;1.73;;
11996;SDS011;6058;48.704;9.474;2024-03-02T12:19:24;2.20;;;1.40;;
11996;SDS011;6058;48.704;9.474;2024-03-02T12:21:51;1.83;;;1.47;;
11996;SDS011;6058;48.704;9.474;2024-03-02T12:24:18;2.40;;;1.30;;
11996;SDS011;6058;48.704;9.474;2024-03-02T12:26:45;1.20;;;1.10;;
11996;SDS011;6058;48.704;9.474;2024-03-02T12:29:13;2.63;;;1.17;;
11996;SDS011;6058;48.704;9.474;2024-03-02T12:31:41;1.03;;;1.03;;
11996;SDS011;6058;48.704;9.474;2024-03-02T12:34:11;0.80;;;0.80;;
11996;SDS011;6058;48.704;9.474;2024-03-02T12:36:39;0.93;;;0.83;;
11996;SDS011;6058;48.704;9.474;2024-03-02T12:39:07;1.20;;;1.10;;
11996;SDS011;6058;48.704;9.474;2024-03-02T12:41:35;1.67;;;1.33;;
11996;SDS011;6058;48.704;9.474;2024-03-02T12:44:03;1.10;;;1.00;;
11996;SDS011;6058;48.704;9.474;2024-03-02T12:46:30;1.20;;;1.20;;
11996;SDS011;6058;48.704;9.474;2024-03-02T12:48:57;1.20;;;1.13;;
11996;SDS011;6058;48.704;9.474;2024-03-02T12:51:28;0.83;;;0.83;;
11996;SDS011;6058;48.704;9.474;2024-03-02T12:53:55;1.20;;;1.10;;
11996;SDS011;6058;48.704;9.474;2024-03-02T12:56:22;1.10;;;0.90;;
11996;SDS011;6058;48.704;9.474;2024-03-02T12:58:53;0.80;;;0.80;;
11996;SDS011;6058;48.704;9.474;2024-03-02T13:01:20;1.00;;;1.00;;
11996;SDS011;6058;48.704;9.474;2024-03-02T13:03:48;0.90;;;0.90;;
11996;SDS011;6058;48.704;9.474;2024-03-02T13:06:16;2.37;;;0.90;;
11996;SDS011;6058;48.704;9.474;2024-03-02T13:08:45;9.60;;;1.40;;
11996;SDS011;6058;48.704;9.474;2024-03-02T13:11:13;0.70;;;0.70;;
11996;SDS011;6058;48.704;9.474;2024-03-02T13:13:40;0.70;;;0.70;;
11996;SDS011;6058;48.704;9.474;2024-03-02T13:16:10;0.80;;;0.80;;
11996;SDS011;6058;48.704;9.474;2024-03-02T13:18:38;0.57;;;0.57;;
11996;SDS011;6058;48.704;9.474;2024-03-02T13:21:06;2.23;;;0.70;;
11996;SDS011;6058;48.704;9.474;2024-03-02T13:23:34;1.70;;;1.00;;
11996;SDS011;6058;48.704;9.474;2024-03-02T13:26:02;1.90;;;0.60;;
11996;SDS011;6058;48.704;9.474;2024-03-02T13:28:29;0.57;;;0.57;;
11996;SDS011;6058;48.704;9.474;2024-03-02T13:31:03;0.63;;;0.60;;
11996;SDS011;6058;48.704;9.474;2024-03-02T13:33:31;1.13;;;0.70;;
11996;SDS011;6058;48.704;9.474;2024-03-02T13:35:58;0.57;;;0.57;;
11996;SDS011;6058;48.704;9.474;2024-03-02T13:38:26;0.87;;;0.57;;
11996;SDS011;6058;48.704;9.474;2024-03-02T13:40:53;0.77;;;0.70;;
11996;SDS011;6058;48.704;9.474;2024-03-02T13:43:22;0.83;;;0.83;;
11996;SDS011;6058;48.704;9.474;2024-03-02T13:45:49;0.60;;;0.60;;
11996;SDS011;6058;48.704;9.474;2024-03-02T13:48:18;0.87;;;0.80;;
11996;SDS011;6058;48.704;9.474;2024-03-02T13:50:45;0.77;;;0.70;;
11996;SDS011;6058;48.704;9.474;2024-03-02T13:53:12;0.80;;;0.80;;
11996;SDS011;6058;48.704;9.474;2024-03-02T13:55:40;1.17;;;0.60;;
11996;SDS011;6058;48.704;9.474;2024-03-02T13:58:08;0.60;;;0.60;;
11996;SDS011;6058;48.704;9.474;2024-03-02T14:00:36;0.60;;;0.60;;
11996;SDS011;6058;48.704;9.474;2024-03-02T14:03:04;1.00;;;0.90;;
11996;SDS011;6058;48.704;9.474;2024-03-02T14:05:31;0.73;;;0.73;;
11996;SDS011;6058;48.704;9.474;2024-03-02T14:07:58;0.90;;;0.90;;
11996;SDS011;6058;48.704;9.474;2024-03-02T14:10:26;1.77;;;0.97;;
11996;SDS011;6058;48.704;9.474;2024-03-02T14:12:54;4.30;;;0.80;;
11996;SDS011;6058;48.704;9.474;2024-03-02T14:15:21;0.80;;;0.80;;
11996;SDS011;6058;48.704;9.474;2024-03-02T14:17:49;0.83;;;0.80;;
11996;SDS011;6058;48.704;9.474;2024-03-02T14:20:17;0.80;;;0.80;;
11996;SDS011;6058;48.704;9.474;2024-03-02T14:22:47;1.23;;;0.93;;
11996;SDS011;6058;48.704;9.474;2024-03-02T14:25:14;4.33;;;1.00;;
11996;SDS011;6058;48.704;9.474;2024-03-02T14:27:41;0.83;;;0.83;;
11996;SDS011;6058;48.704;9.474;2024-03-02T14:30:09;1.77;;;0.87;;
11996;SDS011;6058;48.704;9.474;2024-03-02T14:32:36;2.40;;;1.10;;
11996;SDS011;6058;48.704;9.474;2024-03-02T14:35:05;1.60;;;1.00;;
11996;SDS011;6058;48.704;9.474;2024-03-02T14:37:36;4.50;;;1.30;;
11996;SDS011;6058;48.704;9.474;2024-03-02T14:40:04;2.73;;;1.07;;
11996;SDS011;6058;48.704;9.474;2024-03-02T14:42:34;1.00;;;1.00;;
11996;SDS011;6058;48.704;9.474;2024-03-02T14:45:01;1.93;;;1.20;;
11996;SDS011;6058;48.704;9.474;2024-03-02T14:47:30;1.37;;;1.27;;
11996;SDS011;6058;48.704;9.474;2024-03-02T14:49:59;0.80;;;0.80;;
11996;SDS011;6058;48.704;9.474;2024-03-02T14:52:27;1.00;;;1.00;;
11996;SDS011;6058;48.704;9.474;2024-03-02T14:54:54;1.40;;;1.30;;
11996;SDS011;6058;48.704;9.474;2024-03-02T14:57:22;2.60;;;1.27;;
11996;SDS011;6058;48.704;9.474;2024-03-02T14:59:49;1.33;;;1.23;;
11996;SDS011;6058;48.704;9.474;2024-03-02T15:02:16;3.13;;;1.00;;
11996;SDS011;6058;48.704;9.474;2024-03-02T15:04:43;2.33;;;1.47;;